createdAt,value
2023-08-12T00:00:42.323Z,0.75
2023-08-12T00:03:13.293Z,0.95
2023-08-12T00:05:45.144Z,0.70
2023-08-12T00:08:16.032Z,0.80
2023-08-12T00:10:47.203Z,1.00
2023-08-12T00:13:22.223Z,1.20
2023-08-12T00:15:53.655Z,0.93
2023-08-12T00:18:24.616Z,0.77
2023-08-12T00:20:56.496Z,0.95
2023-08-12T00:23:27.386Z,1.40
2023-08-12T00:26:02.757Z,0.60
2023-08-12T00:28:37.149Z,0.52
2023-08-12T00:31:08.185Z,0.68
2023-08-12T00:33:39.136Z,1.00
2023-08-12T00:36:10.552Z,0.70
2023-08-12T00:38:41.476Z,0.70
2023-08-12T00:41:12.389Z,0.75
2023-08-12T00:43:45.858Z,0.50
2023-08-12T00:46:17.805Z,0.65
2023-08-12T00:48:48.698Z,0.80
2023-08-12T00:51:20.954Z,1.05
2023-08-12T00:53:52.271Z,1.10
2023-08-12T00:56:25.182Z,0.80
2023-08-12T00:58:58.762Z,0.80
2023-08-12T01:01:30.857Z,1.05
2023-08-12T01:04:01.961Z,0.70
2023-08-12T01:06:32.962Z,0.90
2023-08-12T01:09:06.583Z,0.70
2023-08-12T01:11:42.832Z,0.60
2023-08-12T01:14:22.062Z,0.40
2023-08-12T01:16:57.290Z,0.60
2023-08-12T01:19:37.135Z,0.60
2023-08-12T01:22:12.170Z,0.95
2023-08-12T01:24:46.992Z,1.00
2023-08-12T01:27:18.784Z,1.02
2023-08-12T01:29:53.022Z,0.70
2023-08-12T01:32:33.272Z,1.10
2023-08-12T01:35:11.319Z,0.70
2023-08-12T01:37:43.451Z,0.80
2023-08-12T01:40:19.892Z,0.50
2023-08-12T01:42:52.260Z,0.70
2023-08-12T01:45:23.479Z,1.00
2023-08-12T01:47:54.506Z,1.00
2023-08-12T01:50:27.226Z,0.70
2023-08-12T01:52:59.319Z,0.55
2023-08-12T01:55:32.840Z,0.70
2023-08-12T01:58:03.687Z,0.60
2023-08-12T02:00:35.146Z,0.70
2023-08-12T02:03:06.197Z,0.80
2023-08-12T02:05:38.567Z,1.10
2023-08-12T02:08:10.202Z,0.60
2023-08-12T02:10:43.763Z,0.90
2023-08-12T02:13:15.637Z,0.82
2023-08-12T02:15:47.622Z,0.70
2023-08-12T02:18:18.481Z,0.90
2023-08-12T02:20:52.002Z,0.95
2023-08-12T02:23:22.894Z,0.80
2023-08-12T02:25:56.916Z,0.63
2023-08-12T02:28:27.833Z,0.63
2023-08-12T02:30:58.693Z,1.08
2023-08-12T02:33:29.585Z,1.00
2023-08-12T02:36:00.451Z,0.63
2023-08-12T02:38:31.442Z,0.63
2023-08-12T02:41:04.985Z,1.10
2023-08-12T02:43:36.531Z,0.80
2023-08-12T02:46:08.503Z,0.77
2023-08-12T02:48:40.303Z,0.93
2023-08-12T02:51:11.399Z,1.05
2023-08-12T02:53:42.377Z,1.08
2023-08-12T02:56:15.926Z,0.98
2023-08-12T02:58:46.884Z,1.05
2023-08-12T03:01:17.848Z,0.90
2023-08-12T03:03:48.728Z,1.30
2023-08-12T03:06:19.719Z,1.33
2023-08-12T03:08:50.878Z,1.00
2023-08-12T03:11:24.399Z,1.00
2023-08-12T03:13:55.915Z,1.40
2023-08-12T03:16:29.447Z,0.95
2023-08-12T03:19:01.176Z,1.05
2023-08-12T03:21:32.193Z,1.10
2023-08-12T03:24:03.679Z,1.23
2023-08-12T03:26:37.632Z,1.35
2023-08-12T03:29:09.462Z,1.75
2023-08-12T03:31:43.437Z,1.42
2023-08-12T03:34:15.442Z,1.48
2023-08-12T03:36:49.865Z,1.42
2023-08-12T03:39:22.506Z,1.50
2023-08-12T03:41:57.076Z,1.40
2023-08-12T03:44:28.493Z,1.40
2023-08-12T03:46:59.468Z,1.23
2023-08-12T03:49:31.574Z,1.40
2023-08-12T03:52:02.440Z,1.65
2023-08-12T03:54:33.440Z,1.45
2023-08-12T03:57:07.906Z,1.40
2023-08-12T03:59:39.008Z,1.85
2023-08-12T04:02:10.924Z,1.42
2023-08-12T04:04:42.360Z,1.67
2023-08-12T04:07:13.448Z,2.17
2023-08-12T04:09:44.585Z,1.70
2023-08-12T04:12:18.005Z,1.77
2023-08-12T04:14:49.429Z,1.90
2023-08-12T04:17:20.317Z,1.88
2023-08-12T04:19:51.492Z,1.98
2023-08-12T04:22:23.801Z,1.50
2023-08-12T04:24:54.803Z,1.23
2023-08-12T04:27:28.450Z,2.05
2023-08-12T04:29:59.376Z,2.03
2023-08-12T04:32:32.168Z,2.03
2023-08-12T04:35:03.846Z,2.22
2023-08-12T04:37:34.825Z,2.08
2023-08-12T04:40:08.790Z,1.58
2023-08-12T04:42:42.369Z,2.40
2023-08-12T04:45:14.326Z,1.50
2023-08-12T04:47:45.305Z,1.48
2023-08-12T04:50:19.691Z,2.20
2023-08-12T04:52:51.003Z,1.85
2023-08-12T04:55:23.656Z,2.15
2023-08-12T04:57:57.612Z,1.90
2023-08-12T05:00:31.309Z,2.40
2023-08-12T05:03:02.655Z,1.20
2023-08-12T05:05:33.915Z,2.20
2023-08-12T05:08:04.740Z,2.58
2023-08-12T05:10:36.915Z,1.90
2023-08-12T05:13:10.458Z,2.83
2023-08-12T05:15:41.658Z,2.97
2023-08-12T05:18:13.135Z,1.73
2023-08-12T05:20:46.917Z,3.15
2023-08-12T05:23:18.770Z,2.80
2023-08-12T05:25:49.697Z,2.35
2023-08-12T05:28:23.233Z,3.15
2023-08-12T05:30:56.313Z,3.35
2023-08-12T05:33:27.297Z,3.72
2023-08-12T05:35:58.288Z,3.58
2023-08-12T05:38:29.191Z,3.15
2023-08-12T05:41:00.027Z,3.63
2023-08-12T05:43:33.626Z,3.08
2023-08-12T05:46:04.591Z,2.05
2023-08-12T05:48:35.420Z,3.60
2023-08-12T05:51:06.407Z,3.30
2023-08-12T05:53:37.846Z,3.05
2023-08-12T05:56:09.141Z,2.88
2023-08-12T05:58:42.678Z,2.85
2023-08-12T06:01:13.459Z,3.83
2023-08-12T06:03:44.384Z,3.00
2023-08-12T06:06:15.211Z,2.90
2023-08-12T06:08:46.088Z,3.63
2023-08-12T06:11:16.849Z,3.20
2023-08-12T06:13:50.380Z,3.25
2023-08-12T06:16:21.410Z,3.08
2023-08-12T06:18:52.312Z,2.22
2023-08-12T06:21:23.171Z,3.20
2023-08-12T06:23:54.035Z,3.13
2023-08-12T06:26:25.025Z,2.88
2023-08-12T06:28:58.518Z,3.50
2023-08-12T06:31:29.458Z,3.78
2023-08-12T06:34:00.790Z,2.95
2023-08-12T06:36:31.667Z,3.50
2023-08-12T06:39:02.906Z,2.53
2023-08-12T06:41:33.762Z,3.75
2023-08-12T06:44:07.740Z,2.88
2023-08-12T06:46:38.648Z,3.45
2023-08-12T06:49:09.639Z,2.53
2023-08-12T06:51:40.452Z,4.78
2023-08-12T06:54:11.303Z,2.60
2023-08-12T06:56:42.235Z,3.33
2023-08-12T06:59:15.786Z,2.88
2023-08-12T07:01:46.853Z,3.88
2023-08-12T07:04:17.882Z,3.97
2023-08-12T07:06:48.721Z,3.63
2023-08-12T07:09:19.551Z,2.85
2023-08-12T07:11:50.404Z,3.80
2023-08-12T07:14:23.917Z,2.90
2023-08-12T07:16:54.820Z,3.55
2023-08-12T07:19:25.988Z,2.92
2023-08-12T07:21:57.111Z,3.55
2023-08-12T07:24:28.118Z,3.47
2023-08-12T07:26:59.466Z,3.08
2023-08-12T07:29:32.954Z,3.00
2023-08-12T07:32:03.863Z,3.53
2023-08-12T07:34:34.817Z,3.25
2023-08-12T07:37:05.633Z,3.95
2023-08-12T07:39:36.509Z,2.72
2023-08-12T07:42:08.039Z,3.00
2023-08-12T07:44:41.564Z,3.00
2023-08-12T07:47:12.479Z,3.20
2023-08-12T07:49:43.433Z,3.00
2023-08-12T07:52:14.658Z,2.88
2023-08-12T07:54:45.798Z,3.60
2023-08-12T07:57:16.842Z,3.05
2023-08-12T07:59:50.365Z,2.88
2023-08-12T08:02:21.405Z,2.80
2023-08-12T08:04:52.360Z,3.45
2023-08-12T08:07:23.331Z,3.15
2023-08-12T08:09:55.990Z,2.97
2023-08-12T08:12:26.992Z,3.55
2023-08-12T08:15:00.421Z,3.15
2023-08-12T08:17:31.371Z,3.00
2023-08-12T08:20:02.358Z,3.33
2023-08-12T08:22:33.238Z,3.13
2023-08-12T08:25:04.182Z,3.63
2023-08-12T08:27:35.559Z,3.47
2023-08-12T08:30:10.521Z,3.75
2023-08-12T08:32:41.358Z,3.33
2023-08-12T08:35:12.528Z,3.45
2023-08-12T08:37:45.838Z,3.35
2023-08-12T08:40:19.310Z,3.30
2023-08-12T08:42:54.364Z,3.53
2023-08-12T08:45:28.724Z,3.20
2023-08-12T08:48:00.486Z,3.30
2023-08-12T08:50:32.284Z,3.65
2023-08-12T08:53:06.524Z,3.15
2023-08-12T08:55:37.446Z,3.10
2023-08-12T08:58:08.720Z,3.70
2023-08-12T09:00:43.257Z,3.83
2023-08-12T09:03:14.977Z,3.03
2023-08-12T09:05:47.108Z,3.35
2023-08-12T09:08:18.932Z,4.00
2023-08-12T09:10:51.704Z,3.33
2023-08-12T09:13:22.740Z,3.08
2023-08-12T09:15:56.312Z,3.50
2023-08-12T09:18:27.372Z,2.70
2023-08-12T09:20:58.412Z,3.20
2023-08-12T09:23:31.056Z,3.47
2023-08-12T09:26:02.012Z,3.03
2023-08-12T09:28:33.649Z,3.22
2023-08-12T09:31:07.170Z,3.58
2023-08-12T09:33:43.555Z,2.80
2023-08-12T09:36:14.505Z,3.35
2023-08-12T09:38:45.522Z,3.10
2023-08-12T09:41:16.566Z,3.92
2023-08-12T09:43:47.731Z,3.20
2023-08-12T09:46:21.304Z,3.42
2023-08-12T09:48:53.199Z,2.97
2023-08-12T09:51:24.703Z,2.40
2023-08-12T09:53:56.644Z,3.22
2023-08-12T09:56:29.682Z,3.08
2023-08-12T09:59:01.493Z,3.53
2023-08-12T10:01:35.171Z,3.13
2023-08-12T10:04:09.373Z,3.50
2023-08-12T10:06:40.522Z,2.83
2023-08-12T10:09:12.611Z,2.88
2023-08-12T10:11:45.084Z,3.03
2023-08-12T10:14:16.552Z,3.13
2023-08-12T10:16:51.147Z,3.53
2023-08-12T10:19:26.629Z,3.25
2023-08-12T10:22:01.063Z,2.95
2023-08-12T10:24:32.185Z,3.00
2023-08-12T10:27:03.377Z,3.10
2023-08-12T10:29:34.673Z,2.90
2023-08-12T10:32:08.882Z,3.72
2023-08-12T10:34:39.990Z,3.05
2023-08-12T10:37:14.298Z,3.20
2023-08-12T10:39:45.343Z,3.15
2023-08-12T10:42:16.228Z,3.08
2023-08-12T10:44:56.022Z,2.70
2023-08-12T10:47:29.729Z,3.20
2023-08-12T10:50:02.304Z,2.90
2023-08-12T10:52:34.191Z,2.85
2023-08-12T10:55:23.471Z,3.33
2023-08-12T10:57:57.255Z,2.78
2023-08-12T11:00:30.627Z,2.80
2023-08-12T11:03:04.192Z,2.65
2023-08-12T11:05:41.690Z,3.05
2023-08-12T11:08:12.741Z,2.92
2023-08-12T11:10:44.617Z,2.83
2023-08-12T11:13:15.540Z,2.72
2023-08-12T11:15:48.865Z,2.58
2023-08-12T11:18:23.855Z,2.60
2023-08-12T11:20:55.753Z,2.85
2023-08-12T11:23:26.934Z,3.00
2023-08-12T11:25:57.970Z,2.50
2023-08-12T11:28:31.888Z,2.67
2023-08-12T11:31:03.051Z,2.85
2023-08-12T11:33:37.872Z,2.28
2023-08-12T11:36:09.436Z,3.03
2023-08-12T11:38:40.611Z,2.90
2023-08-12T11:41:11.526Z,2.65
2023-08-12T11:43:42.645Z,2.65
2023-08-12T11:46:13.725Z,2.65
2023-08-12T11:48:50.870Z,2.85
2023-08-12T11:51:22.863Z,2.80
2023-08-12T11:53:53.833Z,3.15
2023-08-12T11:56:24.950Z,3.17
2023-08-12T11:58:57.247Z,2.38
2023-08-12T12:01:29.883Z,2.53
2023-08-12T12:04:04.697Z,2.88
2023-08-12T12:06:37.288Z,2.17
2023-08-12T12:09:11.300Z,2.63
2023-08-12T12:11:43.144Z,2.60
2023-08-12T12:14:14.659Z,2.88
2023-08-12T12:16:46.974Z,2.42
2023-08-12T12:19:23.401Z,2.85
2023-08-12T12:21:55.588Z,2.50
2023-08-12T12:24:26.550Z,2.75
2023-08-12T12:26:57.435Z,2.88
2023-08-12T12:29:28.360Z,2.72
2023-08-12T12:31:59.177Z,2.50
2023-08-12T12:34:32.657Z,2.72
2023-08-12T12:37:03.572Z,2.45
2023-08-12T12:39:34.740Z,2.45
2023-08-12T12:42:05.619Z,2.75
2023-08-12T12:44:36.608Z,2.58
2023-08-12T12:47:08.442Z,2.53
2023-08-12T12:49:43.220Z,2.42
2023-08-12T12:52:14.363Z,2.38
2023-08-12T12:54:45.590Z,2.33
2023-08-12T12:57:16.418Z,2.63
2023-08-12T12:59:47.448Z,2.45
2023-08-12T13:02:18.445Z,2.42
2023-08-12T13:04:52.095Z,2.45
2023-08-12T13:07:23.041Z,2.80
2023-08-12T13:09:54.021Z,3.00
2023-08-12T13:12:24.908Z,2.50
2023-08-12T13:14:55.729Z,2.13
2023-08-12T13:17:26.701Z,3.10
2023-08-12T13:20:00.333Z,2.50
2023-08-12T13:22:31.291Z,2.38
2023-08-12T13:25:02.443Z,2.50
2023-08-12T13:27:34.585Z,2.13
2023-08-12T13:30:05.753Z,2.95
2023-08-12T13:32:36.643Z,2.38
2023-08-12T13:35:12.560Z,2.75
2023-08-12T13:37:43.445Z,3.27
2023-08-12T13:40:16.580Z,2.80
2023-08-12T13:42:47.728Z,2.22
2023-08-12T13:45:18.671Z,2.58
2023-08-12T13:47:49.696Z,2.58
2023-08-12T13:50:23.882Z,2.45
2023-08-12T13:52:54.746Z,2.70
2023-08-12T13:55:25.774Z,2.90
2023-08-12T13:57:56.705Z,3.05
2023-08-12T14:00:27.983Z,2.95
2023-08-12T14:02:59.043Z,3.15
2023-08-12T14:05:32.663Z,2.55
2023-08-12T14:08:03.596Z,2.75
2023-08-12T14:10:34.684Z,2.53
2023-08-12T14:13:05.594Z,2.60
2023-08-12T14:15:36.340Z,2.92
2023-08-12T14:18:07.818Z,2.30
2023-08-12T14:20:41.677Z,2.97
2023-08-12T14:23:12.838Z,2.80
2023-08-12T14:25:43.756Z,3.15
2023-08-12T14:28:14.608Z,3.10
2023-08-12T14:30:45.451Z,2.63
2023-08-12T14:33:16.373Z,2.67
2023-08-12T14:35:49.850Z,2.17
2023-08-12T14:38:20.931Z,2.95
2023-08-12T14:40:52.651Z,2.13
2023-08-12T14:43:23.853Z,2.90
2023-08-12T14:45:54.822Z,2.42
2023-08-12T14:48:25.696Z,2.67
2023-08-12T14:50:59.914Z,3.10
2023-08-12T14:53:31.782Z,2.38
2023-08-12T14:56:02.754Z,2.22
2023-08-12T14:58:33.765Z,2.67
2023-08-12T15:01:04.628Z,2.40
2023-08-12T15:03:35.677Z,2.60
2023-08-12T15:06:09.566Z,2.85
2023-08-12T15:08:40.571Z,2.60
2023-08-12T15:11:11.486Z,2.80
2023-08-12T15:13:42.341Z,2.47
2023-08-12T15:16:13.469Z,2.75
2023-08-12T15:18:44.442Z,2.20
2023-08-12T15:21:18.217Z,2.80
2023-08-12T15:23:49.136Z,2.75
2023-08-12T15:26:20.117Z,2.22
2023-08-12T15:28:51.008Z,2.20
2023-08-12T15:31:21.960Z,2.25
2023-08-12T15:33:52.932Z,2.05
2023-08-12T15:36:26.316Z,2.20
2023-08-12T15:38:57.370Z,1.90
2023-08-12T15:41:28.457Z,2.13
2023-08-12T15:43:59.399Z,1.70
2023-08-12T15:46:30.380Z,1.90
2023-08-12T15:49:01.407Z,2.25
2023-08-12T15:51:35.001Z,1.38
2023-08-12T15:54:06.086Z,2.25
2023-08-12T15:56:38.424Z,1.42
2023-08-12T15:59:10.224Z,1.95
2023-08-12T16:01:41.229Z,1.90
2023-08-12T16:04:12.256Z,1.85
2023-08-12T16:06:45.847Z,1.60
2023-08-12T16:09:19.347Z,1.80
2023-08-12T16:11:51.573Z,1.83
2023-08-12T16:14:22.561Z,1.95
2023-08-12T16:16:53.481Z,2.45
2023-08-12T16:19:28.938Z,2.20
2023-08-12T16:22:04.671Z,1.98
2023-08-12T16:24:35.841Z,2.50
2023-08-12T16:27:07.322Z,2.58
2023-08-12T16:29:51.016Z,2.65
2023-08-12T16:32:22.636Z,2.80
2023-08-12T16:34:53.796Z,3.28
2023-08-12T16:37:27.812Z,2.60
2023-08-12T16:39:58.853Z,3.20
2023-08-12T16:42:29.885Z,2.78
2023-08-12T16:45:01.072Z,2.63
2023-08-12T16:47:32.609Z,2.95
2023-08-12T16:50:03.727Z,2.80
2023-08-12T16:52:37.224Z,2.35
2023-08-12T16:55:08.901Z,2.90
2023-08-12T16:57:39.900Z,2.55
2023-08-12T17:00:12.242Z,2.30
2023-08-12T17:02:43.394Z,3.50
2023-08-12T17:05:14.764Z,2.30
2023-08-12T17:07:48.330Z,2.45
2023-08-12T17:10:19.392Z,2.38
2023-08-12T17:12:50.464Z,3.00
2023-08-12T17:15:21.614Z,2.45
2023-08-12T17:17:52.555Z,2.70
2023-08-12T17:20:23.716Z,2.83
2023-08-12T17:22:57.381Z,2.40
2023-08-12T17:25:28.354Z,2.67
2023-08-12T17:27:59.385Z,2.60
2023-08-12T17:30:31.528Z,2.75
2023-08-12T17:33:02.717Z,3.22
2023-08-12T17:35:34.049Z,3.08
2023-08-12T17:38:12.509Z,3.13
2023-08-12T17:40:43.484Z,2.50
2023-08-12T17:43:16.947Z,3.10
2023-08-12T17:45:48.896Z,2.97
2023-08-12T17:48:20.034Z,2.95
2023-08-12T17:50:51.155Z,2.65
2023-08-12T17:53:24.749Z,2.33
2023-08-12T17:55:55.829Z,2.75
2023-08-12T17:58:26.871Z,2.78
2023-08-12T18:00:57.835Z,4.03
2023-08-12T18:03:29.329Z,3.22
2023-08-12T18:06:00.999Z,4.60
2023-08-12T18:08:34.618Z,2.78
2023-08-12T18:11:06.149Z,3.63
2023-08-12T18:13:37.213Z,2.90
2023-08-12T18:16:08.674Z,3.22
2023-08-12T18:18:39.584Z,3.85
2023-08-12T18:21:10.733Z,3.50
2023-08-12T18:23:44.338Z,3.97
2023-08-12T18:26:15.246Z,3.00
2023-08-12T18:28:46.211Z,2.97
2023-08-12T18:31:17.216Z,3.15
2023-08-12T18:33:48.166Z,2.67
2023-08-12T18:36:18.989Z,3.38
2023-08-12T18:38:52.479Z,3.33
2023-08-12T18:41:23.387Z,3.78
2023-08-12T18:43:54.273Z,2.95
2023-08-12T18:46:25.406Z,3.75
2023-08-12T18:48:56.419Z,3.17
2023-08-12T18:51:27.606Z,3.20
2023-08-12T18:54:01.083Z,4.00
2023-08-12T18:56:32.173Z,3.28
2023-08-12T18:59:03.455Z,3.05
2023-08-12T19:01:34.444Z,3.30
2023-08-12T19:04:06.364Z,3.90
2023-08-12T19:06:37.568Z,3.63
2023-08-12T19:09:11.453Z,4.13
2023-08-12T19:11:42.615Z,3.78
2023-08-12T19:14:13.896Z,3.38
2023-08-12T19:16:44.811Z,3.65
2023-08-12T19:19:17.386Z,2.97
2023-08-12T19:21:49.079Z,3.60
2023-08-12T19:24:36.909Z,2.92
2023-08-12T19:27:09.088Z,3.45
2023-08-12T19:29:40.197Z,3.70
2023-08-12T19:32:11.685Z,3.55
2023-08-12T19:34:43.454Z,3.42
2023-08-12T19:37:14.362Z,3.78
2023-08-12T19:39:47.867Z,4.22
2023-08-12T19:42:18.881Z,3.58
2023-08-12T19:44:49.996Z,4.07
2023-08-12T19:47:21.034Z,3.70
2023-08-12T19:49:54.273Z,3.78
2023-08-12T19:52:25.335Z,3.55
2023-08-12T19:54:59.033Z,3.78
2023-08-12T19:57:30.014Z,4.00
2023-08-12T20:00:01.395Z,3.20
2023-08-12T20:02:43.822Z,3.40
2023-08-12T20:05:17.255Z,3.53
2023-08-12T20:07:49.636Z,3.35
2023-08-12T20:10:27.172Z,4.20
2023-08-12T20:13:09.164Z,3.88
2023-08-12T20:15:40.262Z,2.85
2023-08-12T20:18:11.345Z,4.07
2023-08-12T20:20:42.602Z,3.30
2023-08-12T20:23:15.381Z,4.60
2023-08-12T20:25:49.360Z,3.50
2023-08-12T20:28:20.311Z,4.05
2023-08-12T20:30:51.285Z,3.50
2023-08-12T20:33:22.282Z,3.97
2023-08-12T20:35:53.944Z,3.78
2023-08-12T20:38:24.955Z,3.90
2023-08-12T20:40:58.496Z,3.78
2023-08-12T20:43:29.504Z,3.35
2023-08-12T20:46:00.601Z,3.78
2023-08-12T20:48:31.566Z,3.03
2023-08-12T20:51:02.722Z,4.00
2023-08-12T20:53:34.054Z,3.42
2023-08-12T20:56:08.176Z,3.53
2023-08-12T20:58:39.026Z,3.28
2023-08-12T21:01:10.081Z,4.07
2023-08-12T21:03:41.306Z,3.75
2023-08-12T21:06:13.140Z,3.08
2023-08-12T21:08:44.336Z,3.58
2023-08-12T21:11:17.913Z,3.85
2023-08-12T21:13:48.830Z,3.63
2023-08-12T21:16:19.699Z,3.88
2023-08-12T21:18:50.747Z,2.97
2023-08-12T21:21:21.723Z,3.55
2023-08-12T21:23:52.734Z,3.80
2023-08-12T21:26:26.327Z,3.33
2023-08-12T21:28:57.191Z,4.00
2023-08-12T21:31:28.184Z,3.58
2023-08-12T21:33:59.214Z,3.55
2023-08-12T21:36:30.261Z,4.47
2023-08-12T21:39:03.578Z,4.35
2023-08-12T21:41:37.542Z,3.88
2023-08-12T21:44:09.606Z,3.67
2023-08-12T21:46:40.612Z,4.05
2023-08-12T21:49:11.540Z,4.88
2023-08-12T21:51:42.760Z,3.72
2023-08-12T21:54:13.839Z,4.10
2023-08-12T21:56:47.426Z,4.40
2023-08-12T21:59:20.391Z,4.40
2023-08-12T22:01:51.457Z,4.10
2023-08-12T22:04:22.337Z,3.50
2023-08-12T22:06:53.220Z,3.90
2023-08-12T22:09:24.703Z,4.38
2023-08-12T22:11:58.267Z,4.07
2023-08-12T22:14:29.959Z,3.75
2023-08-12T22:17:01.438Z,3.35
2023-08-12T22:19:32.500Z,3.72
2023-08-12T22:22:17.103Z,4.05
2023-08-12T22:24:49.999Z,3.35
2023-08-12T22:27:23.520Z,2.92
2023-08-12T22:29:54.457Z,3.15
2023-08-12T22:32:25.401Z,3.50
2023-08-12T22:34:56.348Z,4.47
2023-08-12T22:37:27.292Z,4.55
2023-08-12T22:39:58.090Z,3.63
2023-08-12T22:42:31.744Z,3.40
2023-08-12T22:45:02.812Z,3.90
2023-08-12T22:47:33.731Z,3.70
2023-08-12T22:50:05.465Z,4.03
2023-08-12T22:52:36.450Z,3.67
2023-08-12T22:55:07.976Z,3.10
2023-08-12T22:57:41.823Z,3.05
2023-08-12T23:00:13.953Z,3.42
2023-08-12T23:02:44.980Z,3.63
2023-08-12T23:05:16.187Z,3.33
2023-08-12T23:07:47.213Z,3.40
2023-08-12T23:10:18.104Z,3.47
2023-08-12T23:12:51.848Z,3.33
2023-08-12T23:15:23.030Z,3.20
2023-08-12T23:17:53.906Z,3.47
2023-08-12T23:20:24.876Z,4.03
2023-08-12T23:22:55.941Z,4.13
2023-08-12T23:25:26.783Z,3.50
2023-08-12T23:28:00.414Z,4.15
2023-08-12T23:30:31.308Z,3.78
2023-08-12T23:33:02.218Z,4.72
2023-08-12T23:35:33.115Z,3.85
2023-08-12T23:38:04.063Z,4.05
2023-08-12T23:40:35.859Z,3.92
2023-08-12T23:43:09.649Z,4.05
2023-08-12T23:45:40.751Z,4.18
2023-08-12T23:48:11.789Z,3.95
2023-08-12T23:50:42.614Z,3.85
2023-08-12T23:53:13.554Z,3.50
2023-08-12T23:55:44.509Z,3.22
2023-08-12T23:58:18.150Z,3.42
